sensor_id;sensor_type;location;lat;lon;timestamp;P1;durP1;ratioP1;P2;durP2;ratioP2
16199;SDS011;8207;52.494;4.654;2024-03-23T00:55:31;9.50;;;1.20;;
16199;SDS011;8207;52.494;4.654;2024-03-23T00:57:56;9.48;;;1.30;;
16199;SDS011;8207;52.494;4.654;2024-03-23T01:00:22;15.85;;;1.80;;
16199;SDS011;8207;52.494;4.654;2024-03-23T01:02:47;11.05;;;1.73;;
16199;SDS011;8207;52.494;4.654;2024-03-23T01:05:12;11.70;;;1.60;;
16199;SDS011;8207;52.494;4.654;2024-03-23T01:07:39;14.02;;;2.42;;
16199;SDS011;8207;52.494;4.654;2024-03-23T01:10:04;11.90;;;1.52;;
16199;SDS011;8207;52.494;4.654;2024-03-23T01:12:30;12.13;;;1.50;;
16199;SDS011;8207;52.494;4.654;2024-03-23T01:14:55;11.30;;;1.65;;
16199;SDS011;8207;52.494;4.654;2024-03-23T01:17:20;11.30;;;1.60;;
16199;SDS011;8207;52.494;4.654;2024-03-23T01:19:46;13.05;;;1.73;;
16199;SDS011;8207;52.494;4.654;2024-03-23T01:22:11;11.88;;;1.60;;
16199;SDS011;8207;52.494;4.654;2024-03-23T01:24:37;16.40;;;1.55;;
16199;SDS011;8207;52.494;4.654;2024-03-23T01:27:02;10.85;;;1.40;;
16199;SDS011;8207;52.494;4.654;2024-03-23T01:29:28;12.75;;;1.63;;
16199;SDS011;8207;52.494;4.654;2024-03-23T01:31:53;11.98;;;1.73;;
16199;SDS011;8207;52.494;4.654;2024-03-23T01:34:19;10.30;;;1.75;;
16199;SDS011;8207;52.494;4.654;2024-03-23T01:36:45;8.88;;;1.33;;
16199;SDS011;8207;52.494;4.654;2024-03-23T01:39:11;9.88;;;1.40;;
16199;SDS011;8207;52.494;4.654;2024-03-23T01:41:37;9.90;;;1.60;;
16199;SDS011;8207;52.494;4.654;2024-03-23T01:44:05;15.57;;;1.92;;
16199;SDS011;8207;52.494;4.654;2024-03-23T01:46:34;12.45;;;1.58;;
16199;SDS011;8207;52.494;4.654;2024-03-23T01:49:01;9.30;;;1.50;;
16199;SDS011;8207;52.494;4.654;2024-03-23T01:51:27;13.52;;;1.85;;
16199;SDS011;8207;52.494;4.654;2024-03-23T01:53:54;12.52;;;1.73;;
16199;SDS011;8207;52.494;4.654;2024-03-23T01:56:21;16.75;;;1.90;;
16199;SDS011;8207;52.494;4.654;2024-03-23T01:58:47;15.65;;;2.00;;
16199;SDS011;8207;52.494;4.654;2024-03-23T02:01:12;15.10;;;1.85;;
16199;SDS011;8207;52.494;4.654;2024-03-23T02:03:37;13.25;;;1.65;;
16199;SDS011;8207;52.494;4.654;2024-03-23T02:06:03;9.55;;;2.05;;
16199;SDS011;8207;52.494;4.654;2024-03-23T02:08:29;8.68;;;1.50;;
16199;SDS011;8207;52.494;4.654;2024-03-23T02:10:56;10.98;;;1.35;;
16199;SDS011;8207;52.494;4.654;2024-03-23T02:13:21;13.35;;;1.40;;
16199;SDS011;8207;52.494;4.654;2024-03-23T02:15:46;12.00;;;1.67;;
16199;SDS011;8207;52.494;4.654;2024-03-23T02:18:13;10.63;;;1.58;;
16199;SDS011;8207;52.494;4.654;2024-03-23T02:20:38;9.32;;;1.23;;
16199;SDS011;8207;52.494;4.654;2024-03-23T02:23:04;8.90;;;1.40;;
16199;SDS011;8207;52.494;4.654;2024-03-23T02:25:31;8.52;;;1.00;;
16199;SDS011;8207;52.494;4.654;2024-03-23T02:27:57;5.97;;;1.10;;
16199;SDS011;8207;52.494;4.654;2024-03-23T02:30:23;9.20;;;1.30;;
16199;SDS011;8207;52.494;4.654;2024-03-23T02:32:49;13.88;;;1.35;;
16199;SDS011;8207;52.494;4.654;2024-03-23T02:35:15;9.52;;;1.05;;
16199;SDS011;8207;52.494;4.654;2024-03-23T02:37:40;11.80;;;1.35;;
16199;SDS011;8207;52.494;4.654;2024-03-23T02:40:05;10.25;;;1.25;;
16199;SDS011;8207;52.494;4.654;2024-03-23T02:42:31;12.43;;;1.58;;
16199;SDS011;8207;52.494;4.654;2024-03-23T02:44:58;13.88;;;1.20;;
16199;SDS011;8207;52.494;4.654;2024-03-23T02:47:24;10.88;;;1.40;;
16199;SDS011;8207;52.494;4.654;2024-03-23T02:49:50;9.95;;;1.55;;
16199;SDS011;8207;52.494;4.654;2024-03-23T02:52:15;11.82;;;1.48;;
16199;SDS011;8207;52.494;4.654;2024-03-23T02:54:40;8.40;;;1.48;;
16199;SDS011;8207;52.494;4.654;2024-03-23T02:57:09;13.55;;;1.55;;
16199;SDS011;8207;52.494;4.654;2024-03-23T02:59:35;12.27;;;1.50;;
16199;SDS011;8207;52.494;4.654;2024-03-23T03:02:00;11.40;;;1.35;;
16199;SDS011;8207;52.494;4.654;2024-03-23T03:04:26;11.50;;;1.83;;
16199;SDS011;8207;52.494;4.654;2024-03-23T03:06:51;18.10;;;2.70;;
16199;SDS011;8207;52.494;4.654;2024-03-23T03:09:16;10.27;;;1.75;;
16199;SDS011;8207;52.494;4.654;2024-03-23T03:11:42;11.57;;;1.65;;
16199;SDS011;8207;52.494;4.654;2024-03-23T03:14:07;10.40;;;1.30;;
16199;SDS011;8207;52.494;4.654;2024-03-23T03:16:33;9.52;;;1.25;;
16199;SDS011;8207;52.494;4.654;2024-03-23T03:18:58;8.90;;;2.20;;
16199;SDS011;8207;52.494;4.654;2024-03-23T03:21:24;13.82;;;2.20;;
16199;SDS011;8207;52.494;4.654;2024-03-23T03:23:49;12.18;;;1.95;;
16199;SDS011;8207;52.494;4.654;2024-03-23T03:26:16;16.65;;;3.05;;
16199;SDS011;8207;52.494;4.654;2024-03-23T03:28:42;16.23;;;2.42;;
16199;SDS011;8207;52.494;4.654;2024-03-23T03:31:09;16.08;;;2.17;;
16199;SDS011;8207;52.494;4.654;2024-03-23T03:33:34;10.25;;;1.70;;
16199;SDS011;8207;52.494;4.654;2024-03-23T03:35:59;14.85;;;2.40;;
16199;SDS011;8207;52.494;4.654;2024-03-23T03:38:25;18.17;;;1.90;;
16199;SDS011;8207;52.494;4.654;2024-03-23T03:40:50;17.17;;;2.72;;
16199;SDS011;8207;52.494;4.654;2024-03-23T03:43:15;14.95;;;2.35;;
16199;SDS011;8207;52.494;4.654;2024-03-23T03:45:41;11.95;;;2.20;;
16199;SDS011;8207;52.494;4.654;2024-03-23T03:48:06;15.15;;;1.90;;
16199;SDS011;8207;52.494;4.654;2024-03-23T03:50:32;15.43;;;2.20;;
16199;SDS011;8207;52.494;4.654;2024-03-23T03:52:57;11.75;;;1.95;;
16199;SDS011;8207;52.494;4.654;2024-03-23T03:55:23;14.02;;;1.73;;
16199;SDS011;8207;52.494;4.654;2024-03-23T03:57:48;12.38;;;1.83;;
16199;SDS011;8207;52.494;4.654;2024-03-23T04:00:13;10.13;;;1.80;;
16199;SDS011;8207;52.494;4.654;2024-03-23T04:02:39;15.98;;;3.10;;
16199;SDS011;8207;52.494;4.654;2024-03-23T04:05:05;9.65;;;1.75;;
16199;SDS011;8207;52.494;4.654;2024-03-23T04:07:31;18.08;;;1.90;;
16199;SDS011;8207;52.494;4.654;2024-03-23T04:09:56;12.68;;;2.10;;
16199;SDS011;8207;52.494;4.654;2024-03-23T04:12:22;9.77;;;1.85;;
16199;SDS011;8207;52.494;4.654;2024-03-23T04:14:48;11.00;;;1.90;;
16199;SDS011;8207;52.494;4.654;2024-03-23T04:17:14;13.18;;;1.90;;
16199;SDS011;8207;52.494;4.654;2024-03-23T04:19:39;11.10;;;1.67;;
16199;SDS011;8207;52.494;4.654;2024-03-23T04:22:04;13.45;;;1.60;;
16199;SDS011;8207;52.494;4.654;2024-03-23T04:24:30;9.35;;;1.75;;
16199;SDS011;8207;52.494;4.654;2024-03-23T04:26:55;9.80;;;1.65;;
16199;SDS011;8207;52.494;4.654;2024-03-23T04:29:20;8.00;;;1.83;;
16199;SDS011;8207;52.494;4.654;2024-03-23T04:31:46;13.25;;;2.10;;
16199;SDS011;8207;52.494;4.654;2024-03-23T04:34:12;9.85;;;1.83;;
16199;SDS011;8207;52.494;4.654;2024-03-23T04:36:38;11.30;;;2.13;;
16199;SDS011;8207;52.494;4.654;2024-03-23T04:39:03;13.77;;;1.90;;
16199;SDS011;8207;52.494;4.654;2024-03-23T04:41:28;16.80;;;3.28;;
16199;SDS011;8207;52.494;4.654;2024-03-23T04:43:54;12.68;;;2.63;;
16199;SDS011;8207;52.494;4.654;2024-03-23T04:46:20;14.10;;;2.35;;
16199;SDS011;8207;52.494;4.654;2024-03-23T04:48:45;15.38;;;2.28;;
16199;SDS011;8207;52.494;4.654;2024-03-23T04:51:11;14.00;;;2.28;;
16199;SDS011;8207;52.494;4.654;2024-03-23T04:53:46;13.63;;;2.45;;
16199;SDS011;8207;52.494;4.654;2024-03-23T04:56:11;17.15;;;2.78;;
16199;SDS011;8207;52.494;4.654;2024-03-23T04:58:36;17.30;;;3.20;;
16199;SDS011;8207;52.494;4.654;2024-03-23T05:01:02;13.18;;;2.20;;
16199;SDS011;8207;52.494;4.654;2024-03-23T05:03:27;13.40;;;2.38;;
16199;SDS011;8207;52.494;4.654;2024-03-23T05:05:53;12.98;;;2.58;;
16199;SDS011;8207;52.494;4.654;2024-03-23T05:08:18;11.85;;;2.85;;
16199;SDS011;8207;52.494;4.654;2024-03-23T05:10:43;10.80;;;2.33;;
16199;SDS011;8207;52.494;4.654;2024-03-23T05:13:09;14.40;;;2.70;;
16199;SDS011;8207;52.494;4.654;2024-03-23T05:15:34;13.27;;;2.70;;
16199;SDS011;8207;52.494;4.654;2024-03-23T05:18:00;12.60;;;2.47;;
16199;SDS011;8207;52.494;4.654;2024-03-23T05:20:26;13.27;;;2.78;;
16199;SDS011;8207;52.494;4.654;2024-03-23T05:22:51;13.45;;;2.70;;
16199;SDS011;8207;52.494;4.654;2024-03-23T05:25:19;17.50;;;2.75;;
16199;SDS011;8207;52.494;4.654;2024-03-23T05:27:45;13.10;;;2.67;;
16199;SDS011;8207;52.494;4.654;2024-03-23T05:30:10;18.00;;;2.78;;
16199;SDS011;8207;52.494;4.654;2024-03-23T05:32:36;14.98;;;3.08;;
16199;SDS011;8207;52.494;4.654;2024-03-23T05:35:01;13.73;;;2.75;;
16199;SDS011;8207;52.494;4.654;2024-03-23T05:37:27;16.15;;;2.75;;
16199;SDS011;8207;52.494;4.654;2024-03-23T05:39:52;16.77;;;3.33;;
16199;SDS011;8207;52.494;4.654;2024-03-23T05:42:17;18.77;;;3.38;;
16199;SDS011;8207;52.494;4.654;2024-03-23T05:44:46;16.65;;;2.65;;
16199;SDS011;8207;52.494;4.654;2024-03-23T05:47:12;18.98;;;3.42;;
16199;SDS011;8207;52.494;4.654;2024-03-23T05:49:42;10.93;;;3.00;;
16199;SDS011;8207;52.494;4.654;2024-03-23T05:52:08;14.15;;;2.67;;
16199;SDS011;8207;52.494;4.654;2024-03-23T05:54:34;13.73;;;2.80;;
16199;SDS011;8207;52.494;4.654;2024-03-23T05:56:59;16.80;;;3.35;;
16199;SDS011;8207;52.494;4.654;2024-03-23T05:59:25;17.13;;;4.45;;
16199;SDS011;8207;52.494;4.654;2024-03-23T06:01:52;16.85;;;3.20;;
16199;SDS011;8207;52.494;4.654;2024-03-23T06:04:17;16.13;;;3.85;;
16199;SDS011;8207;52.494;4.654;2024-03-23T06:06:42;14.27;;;3.78;;
16199;SDS011;8207;52.494;4.654;2024-03-23T06:09:08;13.45;;;3.78;;
16199;SDS011;8207;52.494;4.654;2024-03-23T06:11:33;13.52;;;3.58;;
16199;SDS011;8207;52.494;4.654;2024-03-23T06:13:59;12.35;;;3.03;;
16199;SDS011;8207;52.494;4.654;2024-03-23T06:16:25;15.93;;;3.83;;
16199;SDS011;8207;52.494;4.654;2024-03-23T06:18:50;16.08;;;2.97;;
16199;SDS011;8207;52.494;4.654;2024-03-23T06:21:16;20.67;;;2.90;;
16199;SDS011;8207;52.494;4.654;2024-03-23T06:23:41;17.45;;;2.72;;
16199;SDS011;8207;52.494;4.654;2024-03-23T06:26:07;12.90;;;3.20;;
16199;SDS011;8207;52.494;4.654;2024-03-23T06:28:33;18.05;;;3.70;;
16199;SDS011;8207;52.494;4.654;2024-03-23T06:30:59;17.80;;;3.20;;
16199;SDS011;8207;52.494;4.654;2024-03-23T06:33:24;19.65;;;4.18;;
16199;SDS011;8207;52.494;4.654;2024-03-23T06:35:53;14.90;;;4.07;;
16199;SDS011;8207;52.494;4.654;2024-03-23T06:38:18;16.27;;;3.92;;
16199;SDS011;8207;52.494;4.654;2024-03-23T06:40:44;8.70;;;2.63;;
16199;SDS011;8207;52.494;4.654;2024-03-23T06:43:13;16.77;;;3.20;;
16199;SDS011;8207;52.494;4.654;2024-03-23T06:45:38;11.93;;;2.33;;
16199;SDS011;8207;52.494;4.654;2024-03-23T06:48:04;11.27;;;2.80;;
16199;SDS011;8207;52.494;4.654;2024-03-23T06:50:32;19.15;;;3.10;;
16199;SDS011;8207;52.494;4.654;2024-03-23T06:52:58;13.27;;;2.83;;
16199;SDS011;8207;52.494;4.654;2024-03-23T06:55:24;16.25;;;3.20;;
16199;SDS011;8207;52.494;4.654;2024-03-23T06:57:51;12.00;;;2.60;;
16199;SDS011;8207;52.494;4.654;2024-03-23T07:00:17;14.95;;;2.92;;
16199;SDS011;8207;52.494;4.654;2024-03-23T07:02:42;19.85;;;3.10;;
16199;SDS011;8207;52.494;4.654;2024-03-23T07:05:09;12.70;;;2.50;;
16199;SDS011;8207;52.494;4.654;2024-03-23T07:07:34;9.35;;;2.60;;
16199;SDS011;8207;52.494;4.654;2024-03-23T07:10:00;13.70;;;2.58;;
16199;SDS011;8207;52.494;4.654;2024-03-23T07:12:25;9.80;;;2.60;;
16199;SDS011;8207;52.494;4.654;2024-03-23T07:14:50;15.02;;;2.90;;
16199;SDS011;8207;52.494;4.654;2024-03-23T07:17:16;15.05;;;2.95;;
16199;SDS011;8207;52.494;4.654;2024-03-23T07:19:43;14.43;;;2.88;;
16199;SDS011;8207;52.494;4.654;2024-03-23T07:22:08;14.30;;;3.17;;
16199;SDS011;8207;52.494;4.654;2024-03-23T07:24:34;15.57;;;2.92;;
16199;SDS011;8207;52.494;4.654;2024-03-23T07:26:59;13.07;;;2.75;;
16199;SDS011;8207;52.494;4.654;2024-03-23T07:29:25;12.82;;;2.40;;
16199;SDS011;8207;52.494;4.654;2024-03-23T07:31:50;20.17;;;2.40;;
16199;SDS011;8207;52.494;4.654;2024-03-23T07:34:15;12.82;;;2.50;;
16199;SDS011;8207;52.494;4.654;2024-03-23T07:36:41;17.02;;;2.65;;
16199;SDS011;8207;52.494;4.654;2024-03-23T07:39:06;12.07;;;2.60;;
16199;SDS011;8207;52.494;4.654;2024-03-23T07:41:33;10.90;;;2.40;;
16199;SDS011;8207;52.494;4.654;2024-03-23T07:43:58;9.55;;;1.83;;
16199;SDS011;8207;52.494;4.654;2024-03-23T07:46:24;16.95;;;2.30;;
16199;SDS011;8207;52.494;4.654;2024-03-23T07:48:50;13.73;;;1.83;;
16199;SDS011;8207;52.494;4.654;2024-03-23T07:51:16;10.93;;;1.95;;
16199;SDS011;8207;52.494;4.654;2024-03-23T07:53:44;13.07;;;2.17;;
16199;SDS011;8207;52.494;4.654;2024-03-23T07:56:11;13.32;;;1.65;;
16199;SDS011;8207;52.494;4.654;2024-03-23T07:58:37;12.40;;;2.20;;
16199;SDS011;8207;52.494;4.654;2024-03-23T08:01:12;11.73;;;1.83;;
16199;SDS011;8207;52.494;4.654;2024-03-23T08:03:40;14.02;;;2.38;;
16199;SDS011;8207;52.494;4.654;2024-03-23T08:06:16;10.20;;;2.00;;
16199;SDS011;8207;52.494;4.654;2024-03-23T08:08:43;12.70;;;2.30;;
16199;SDS011;8207;52.494;4.654;2024-03-23T08:11:09;9.95;;;2.20;;
16199;SDS011;8207;52.494;4.654;2024-03-23T08:13:35;12.20;;;2.13;;
16199;SDS011;8207;52.494;4.654;2024-03-23T08:16:01;10.05;;;2.25;;
16199;SDS011;8207;52.494;4.654;2024-03-23T08:18:28;13.15;;;2.50;;
16199;SDS011;8207;52.494;4.654;2024-03-23T08:20:57;12.75;;;2.20;;
16199;SDS011;8207;52.494;4.654;2024-03-23T08:23:27;16.33;;;2.08;;
16199;SDS011;8207;52.494;4.654;2024-03-23T08:25:59;14.27;;;2.65;;
16199;SDS011;8207;52.494;4.654;2024-03-23T08:28:26;11.35;;;2.45;;
16199;SDS011;8207;52.494;4.654;2024-03-23T08:30:52;11.77;;;2.25;;
16199;SDS011;8207;52.494;4.654;2024-03-23T08:33:19;18.50;;;2.55;;
16199;SDS011;8207;52.494;4.654;2024-03-23T08:35:54;16.67;;;2.95;;
16199;SDS011;8207;52.494;4.654;2024-03-23T08:38:24;15.75;;;2.28;;
16199;SDS011;8207;52.494;4.654;2024-03-23T08:41:11;13.10;;;2.85;;
16199;SDS011;8207;52.494;4.654;2024-03-23T08:43:37;10.88;;;2.88;;
16199;SDS011;8207;52.494;4.654;2024-03-23T08:46:04;15.65;;;2.50;;
16199;SDS011;8207;52.494;4.654;2024-03-23T08:48:32;13.40;;;2.63;;
16199;SDS011;8207;52.494;4.654;2024-03-23T08:53:30;11.63;;;2.30;;
16199;SDS011;8207;52.494;4.654;2024-03-23T08:55:56;10.68;;;2.28;;
16199;SDS011;8207;52.494;4.654;2024-03-23T08:58:23;14.45;;;2.38;;
16199;SDS011;8207;52.494;4.654;2024-03-23T09:00:49;16.63;;;2.72;;
16199;SDS011;8207;52.494;4.654;2024-03-23T09:03:15;13.88;;;2.65;;
16199;SDS011;8207;52.494;4.654;2024-03-23T09:05:41;6.82;;;1.95;;
16199;SDS011;8207;52.494;4.654;2024-03-23T09:08:06;10.48;;;2.65;;
16199;SDS011;8207;52.494;4.654;2024-03-23T09:10:37;10.70;;;2.05;;
16199;SDS011;8207;52.494;4.654;2024-03-23T09:13:04;11.85;;;2.17;;
16199;SDS011;8207;52.494;4.654;2024-03-23T09:15:29;14.00;;;3.33;;
16199;SDS011;8207;52.494;4.654;2024-03-23T09:17:54;14.77;;;2.80;;
16199;SDS011;8207;52.494;4.654;2024-03-23T09:20:20;11.90;;;2.35;;
16199;SDS011;8207;52.494;4.654;2024-03-23T09:22:45;16.85;;;2.63;;
16199;SDS011;8207;52.494;4.654;2024-03-23T09:25:12;13.48;;;2.40;;
16199;SDS011;8207;52.494;4.654;2024-03-23T09:27:38;13.68;;;2.38;;
16199;SDS011;8207;52.494;4.654;2024-03-23T09:30:03;11.88;;;2.53;;
16199;SDS011;8207;52.494;4.654;2024-03-23T09:32:30;13.65;;;1.83;;
16199;SDS011;8207;52.494;4.654;2024-03-23T09:34:55;15.15;;;2.10;;
16199;SDS011;8207;52.494;4.654;2024-03-23T09:37:20;13.82;;;2.25;;
16199;SDS011;8207;52.494;4.654;2024-03-23T09:39:46;15.35;;;2.33;;
16199;SDS011;8207;52.494;4.654;2024-03-23T09:42:11;9.82;;;1.95;;
16199;SDS011;8207;52.494;4.654;2024-03-23T09:44:36;11.40;;;2.33;;
16199;SDS011;8207;52.494;4.654;2024-03-23T09:47:02;19.20;;;3.10;;
16199;SDS011;8207;52.494;4.654;2024-03-23T09:49:28;11.00;;;1.80;;
16199;SDS011;8207;52.494;4.654;2024-03-23T09:51:54;17.30;;;2.28;;
16199;SDS011;8207;52.494;4.654;2024-03-23T09:54:20;18.90;;;2.90;;
16199;SDS011;8207;52.494;4.654;2024-03-23T09:56:46;10.65;;;2.40;;
16199;SDS011;8207;52.494;4.654;2024-03-23T09:59:12;14.95;;;2.75;;
16199;SDS011;8207;52.494;4.654;2024-03-23T10:01:37;12.80;;;2.22;;
16199;SDS011;8207;52.494;4.654;2024-03-23T10:04:03;11.73;;;2.20;;
16199;SDS011;8207;52.494;4.654;2024-03-23T10:06:28;13.55;;;2.45;;
16199;SDS011;8207;52.494;4.654;2024-03-23T10:08:53;15.57;;;2.65;;
16199;SDS011;8207;52.494;4.654;2024-03-23T10:11:20;15.00;;;2.30;;
16199;SDS011;8207;52.494;4.654;2024-03-23T10:13:46;9.95;;;2.55;;
16199;SDS011;8207;52.494;4.654;2024-03-23T10:16:12;11.15;;;2.00;;
16199;SDS011;8207;52.494;4.654;2024-03-23T10:18:46;15.38;;;2.40;;
16199;SDS011;8207;52.494;4.654;2024-03-23T10:21:13;14.82;;;2.58;;
16199;SDS011;8207;52.494;4.654;2024-03-23T10:23:40;14.13;;;3.10;;
16199;SDS011;8207;52.494;4.654;2024-03-23T10:26:28;16.23;;;2.47;;
16199;SDS011;8207;52.494;4.654;2024-03-23T10:31:27;10.55;;;2.30;;
16199;SDS011;8207;52.494;4.654;2024-03-23T10:33:53;12.52;;;2.00;;
16199;SDS011;8207;52.494;4.654;2024-03-23T10:36:20;14.82;;;2.38;;
16199;SDS011;8207;52.494;4.654;2024-03-23T10:38:46;10.57;;;2.08;;
16199;SDS011;8207;52.494;4.654;2024-03-23T10:41:12;11.25;;;2.80;;
16199;SDS011;8207;52.494;4.654;2024-03-23T10:43:38;17.13;;;3.13;;
16199;SDS011;8207;52.494;4.654;2024-03-23T10:46:04;11.90;;;2.30;;
16199;SDS011;8207;52.494;4.654;2024-03-23T10:48:30;16.92;;;2.78;;
16199;SDS011;8207;52.494;4.654;2024-03-23T10:50:59;19.88;;;1.95;;
16199;SDS011;8207;52.494;4.654;2024-03-23T10:53:25;14.65;;;2.58;;
16199;SDS011;8207;52.494;4.654;2024-03-23T10:55:52;14.82;;;2.28;;
16199;SDS011;8207;52.494;4.654;2024-03-23T10:58:21;15.25;;;2.55;;
16199;SDS011;8207;52.494;4.654;2024-03-23T11:00:51;13.30;;;2.80;;
16199;SDS011;8207;52.494;4.654;2024-03-23T11:03:34;12.35;;;2.30;;
16199;SDS011;8207;52.494;4.654;2024-03-23T11:06:04;14.07;;;2.08;;
16199;SDS011;8207;52.494;4.654;2024-03-23T11:08:38;10.25;;;1.90;;
16199;SDS011;8207;52.494;4.654;2024-03-23T11:11:17;12.90;;;2.35;;
16199;SDS011;8207;52.494;4.654;2024-03-23T11:13:44;10.38;;;1.63;;
16199;SDS011;8207;52.494;4.654;2024-03-23T11:16:14;10.48;;;2.10;;
16199;SDS011;8207;52.494;4.654;2024-03-23T11:18:40;14.32;;;2.08;;
16199;SDS011;8207;52.494;4.654;2024-03-23T11:21:06;17.52;;;2.90;;
16199;SDS011;8207;52.494;4.654;2024-03-23T11:23:32;10.95;;;2.05;;
16199;SDS011;8207;52.494;4.654;2024-03-23T11:25:57;7.22;;;1.90;;
16199;SDS011;8207;52.494;4.654;2024-03-23T11:28:23;16.45;;;2.28;;
16199;SDS011;8207;52.494;4.654;2024-03-23T11:30:48;18.42;;;2.45;;
16199;SDS011;8207;52.494;4.654;2024-03-23T11:33:13;15.77;;;2.25;;
16199;SDS011;8207;52.494;4.654;2024-03-23T11:35:40;7.75;;;1.70;;
16199;SDS011;8207;52.494;4.654;2024-03-23T11:38:07;13.75;;;2.10;;
16199;SDS011;8207;52.494;4.654;2024-03-23T11:40:45;16.45;;;2.33;;
16199;SDS011;8207;52.494;4.654;2024-03-23T11:43:12;15.70;;;2.35;;
16199;SDS011;8207;52.494;4.654;2024-03-23T11:45:40;18.17;;;2.17;;
16199;SDS011;8207;52.494;4.654;2024-03-23T11:50:43;11.38;;;2.00;;
16199;SDS011;8207;52.494;4.654;2024-03-23T11:53:11;10.30;;;1.80;;
16199;SDS011;8207;52.494;4.654;2024-03-23T11:58:10;11.93;;;2.17;;
16199;SDS011;8207;52.494;4.654;2024-03-23T12:00:36;10.82;;;2.88;;
16199;SDS011;8207;52.494;4.654;2024-03-23T12:03:02;12.00;;;2.22;;
16199;SDS011;8207;52.494;4.654;2024-03-23T12:05:28;17.90;;;2.10;;
16199;SDS011;8207;52.494;4.654;2024-03-23T12:07:54;12.20;;;1.90;;
16199;SDS011;8207;52.494;4.654;2024-03-23T12:10:20;14.25;;;2.45;;
16199;SDS011;8207;52.494;4.654;2024-03-23T12:12:45;13.02;;;2.15;;
16199;SDS011;8207;52.494;4.654;2024-03-23T12:15:11;12.57;;;1.75;;
16199;SDS011;8207;52.494;4.654;2024-03-23T12:17:37;12.75;;;1.88;;
16199;SDS011;8207;52.494;4.654;2024-03-23T12:20:03;12.95;;;1.95;;
16199;SDS011;8207;52.494;4.654;2024-03-23T12:22:29;13.40;;;2.13;;
16199;SDS011;8207;52.494;4.654;2024-03-23T12:24:55;14.25;;;2.15;;
16199;SDS011;8207;52.494;4.654;2024-03-23T12:27:21;12.40;;;2.05;;
16199;SDS011;8207;52.494;4.654;2024-03-23T12:29:46;15.82;;;2.15;;
16199;SDS011;8207;52.494;4.654;2024-03-23T12:32:12;15.48;;;1.77;;
16199;SDS011;8207;52.494;4.654;2024-03-23T12:34:38;14.18;;;2.20;;
16199;SDS011;8207;52.494;4.654;2024-03-23T12:37:04;12.05;;;1.85;;
16199;SDS011;8207;52.494;4.654;2024-03-23T12:39:31;9.40;;;1.55;;
16199;SDS011;8207;52.494;4.654;2024-03-23T12:41:56;9.52;;;1.80;;
16199;SDS011;8207;52.494;4.654;2024-03-23T12:44:21;13.25;;;1.80;;
16199;SDS011;8207;52.494;4.654;2024-03-23T12:46:47;11.82;;;2.10;;
16199;SDS011;8207;52.494;4.654;2024-03-23T12:49:12;12.15;;;1.77;;
16199;SDS011;8207;52.494;4.654;2024-03-23T12:51:38;11.55;;;1.67;;
16199;SDS011;8207;52.494;4.654;2024-03-23T12:54:03;13.63;;;2.33;;
16199;SDS011;8207;52.494;4.654;2024-03-23T12:56:29;11.25;;;1.92;;
16199;SDS011;8207;52.494;4.654;2024-03-23T12:58:55;13.32;;;2.08;;
16199;SDS011;8207;52.494;4.654;2024-03-23T13:01:22;14.30;;;2.05;;
16199;SDS011;8207;52.494;4.654;2024-03-23T13:03:48;12.73;;;1.77;;
16199;SDS011;8207;52.494;4.654;2024-03-23T13:06:14;14.52;;;2.00;;
16199;SDS011;8207;52.494;4.654;2024-03-23T13:08:40;8.15;;;1.50;;
16199;SDS011;8207;52.494;4.654;2024-03-23T13:11:06;10.82;;;2.05;;
16199;SDS011;8207;52.494;4.654;2024-03-23T13:13:35;7.95;;;1.50;;
16199;SDS011;8207;52.494;4.654;2024-03-23T13:16:01;9.68;;;1.52;;
16199;SDS011;8207;52.494;4.654;2024-03-23T13:18:27;11.75;;;1.40;;
16199;SDS011;8207;52.494;4.654;2024-03-23T13:20:54;11.80;;;1.88;;
16199;SDS011;8207;52.494;4.654;2024-03-23T13:23:19;11.75;;;1.75;;
16199;SDS011;8207;52.494;4.654;2024-03-23T13:25:55;10.20;;;2.13;;
16199;SDS011;8207;52.494;4.654;2024-03-23T13:28:21;10.30;;;2.10;;
16199;SDS011;8207;52.494;4.654;2024-03-23T13:33:19;10.68;;;1.65;;
16199;SDS011;8207;52.494;4.654;2024-03-23T13:35:51;9.13;;;2.22;;
16199;SDS011;8207;52.494;4.654;2024-03-23T13:38:17;14.45;;;2.00;;
16199;SDS011;8207;52.494;4.654;2024-03-23T13:40:55;11.38;;;2.22;;
16199;SDS011;8207;52.494;4.654;2024-03-23T13:43:22;9.45;;;1.80;;
16199;SDS011;8207;52.494;4.654;2024-03-23T13:45:48;8.55;;;1.65;;
16199;SDS011;8207;52.494;4.654;2024-03-23T13:48:16;9.52;;;1.35;;
16199;SDS011;8207;52.494;4.654;2024-03-23T13:50:43;6.20;;;1.17;;
16199;SDS011;8207;52.494;4.654;2024-03-23T13:53:08;14.02;;;1.40;;
16199;SDS011;8207;52.494;4.654;2024-03-23T13:55:33;7.30;;;2.45;;
16199;SDS011;8207;52.494;4.654;2024-03-23T13:57:59;8.57;;;1.60;;
16199;SDS011;8207;52.494;4.654;2024-03-23T14:00:24;10.27;;;1.50;;
16199;SDS011;8207;52.494;4.654;2024-03-23T14:02:50;10.93;;;1.90;;
16199;SDS011;8207;52.494;4.654;2024-03-23T14:05:15;13.05;;;2.15;;
16199;SDS011;8207;52.494;4.654;2024-03-23T14:07:40;12.98;;;1.92;;
16199;SDS011;8207;52.494;4.654;2024-03-23T14:10:06;14.45;;;1.95;;
16199;SDS011;8207;52.494;4.654;2024-03-23T14:12:32;9.10;;;1.70;;
16199;SDS011;8207;52.494;4.654;2024-03-23T14:14:57;10.57;;;1.88;;
16199;SDS011;8207;52.494;4.654;2024-03-23T14:17:23;11.75;;;1.73;;
16199;SDS011;8207;52.494;4.654;2024-03-23T14:19:48;10.95;;;1.70;;
16199;SDS011;8207;52.494;4.654;2024-03-23T14:22:15;5.93;;;1.13;;
16199;SDS011;8207;52.494;4.654;2024-03-23T14:24:42;8.55;;;1.20;;
16199;SDS011;8207;52.494;4.654;2024-03-23T14:27:08;12.98;;;1.90;;
16199;SDS011;8207;52.494;4.654;2024-03-23T14:29:33;15.30;;;2.00;;
16199;SDS011;8207;52.494;4.654;2024-03-23T14:31:59;15.07;;;1.83;;
16199;SDS011;8207;52.494;4.654;2024-03-23T14:34:25;12.95;;;2.00;;
16199;SDS011;8207;52.494;4.654;2024-03-23T14:36:53;10.43;;;1.85;;
16199;SDS011;8207;52.494;4.654;2024-03-23T14:39:22;13.20;;;1.58;;
16199;SDS011;8207;52.494;4.654;2024-03-23T14:41:48;10.25;;;1.70;;
16199;SDS011;8207;52.494;4.654;2024-03-23T14:44:14;14.25;;;1.77;;
16199;SDS011;8207;52.494;4.654;2024-03-23T14:46:40;12.90;;;1.60;;
16199;SDS011;8207;52.494;4.654;2024-03-23T14:49:05;9.48;;;2.08;;
16199;SDS011;8207;52.494;4.654;2024-03-23T14:51:30;12.52;;;2.00;;
16199;SDS011;8207;52.494;4.654;2024-03-23T14:53:56;11.07;;;1.90;;
16199;SDS011;8207;52.494;4.654;2024-03-23T14:56:21;13.40;;;2.20;;
16199;SDS011;8207;52.494;4.654;2024-03-23T14:58:46;12.18;;;2.35;;
16199;SDS011;8207;52.494;4.654;2024-03-23T15:01:17;11.88;;;1.65;;
16199;SDS011;8207;52.494;4.654;2024-03-23T15:03:42;14.23;;;3.30;;
16199;SDS011;8207;52.494;4.654;2024-03-23T15:06:09;10.02;;;1.98;;
16199;SDS011;8207;52.494;4.654;2024-03-23T15:08:35;9.50;;;2.08;;
16199;SDS011;8207;52.494;4.654;2024-03-23T15:11:02;11.95;;;2.65;;
16199;SDS011;8207;52.494;4.654;2024-03-23T15:13:31;8.52;;;1.92;;
16199;SDS011;8207;52.494;4.654;2024-03-23T15:15:59;14.38;;;1.83;;
16199;SDS011;8207;52.494;4.654;2024-03-23T15:18:25;10.68;;;1.70;;
16199;SDS011;8207;52.494;4.654;2024-03-23T15:20:57;8.52;;;1.70;;
16199;SDS011;8207;52.494;4.654;2024-03-23T15:23:27;5.85;;;1.70;;
16199;SDS011;8207;52.494;4.654;2024-03-23T15:25:54;6.40;;;1.60;;
16199;SDS011;8207;52.494;4.654;2024-03-23T15:28:19;7.13;;;1.48;;
16199;SDS011;8207;52.494;4.654;2024-03-23T15:30:45;8.68;;;1.25;;
16199;SDS011;8207;52.494;4.654;2024-03-23T15:33:10;8.00;;;1.40;;
16199;SDS011;8207;52.494;4.654;2024-03-23T15:35:35;10.00;;;1.63;;
16199;SDS011;8207;52.494;4.654;2024-03-23T15:38:01;5.28;;;1.48;;
16199;SDS011;8207;52.494;4.654;2024-03-23T15:40:26;7.38;;;1.30;;
16199;SDS011;8207;52.494;4.654;2024-03-23T15:42:52;4.20;;;1.10;;
16199;SDS011;8207;52.494;4.654;2024-03-23T15:45:17;10.77;;;1.80;;
16199;SDS011;8207;52.494;4.654;2024-03-23T15:47:43;10.93;;;1.70;;
16199;SDS011;8207;52.494;4.654;2024-03-23T15:50:08;12.25;;;1.67;;
16199;SDS011;8207;52.494;4.654;2024-03-23T15:52:34;7.38;;;1.58;;